sensor_id;sensor_type;location;lat;lon;timestamp;P1;durP1;ratioP1;P2;durP2;ratioP2
21513;SDS011;10918;48.102;11.636;2022-12-18T00:01:21;34.55;;;18.13;;
21513;SDS011;10918;48.102;11.636;2022-12-18T00:03:48;33.08;;;17.08;;
21513;SDS011;10918;48.102;11.636;2022-12-18T00:06:14;35.13;;;16.10;;
21513;SDS011;10918;48.102;11.636;2022-12-18T00:08:41;35.33;;;17.35;;
21513;SDS011;10918;48.102;11.636;2022-12-18T00:11:08;32.45;;;17.80;;
21513;SDS011;10918;48.102;11.636;2022-12-18T00:13:34;32.25;;;16.30;;
21513;SDS011;10918;48.102;11.636;2022-12-18T00:16:04;34.90;;;16.17;;
21513;SDS011;10918;48.102;11.636;2022-12-18T00:18:31;32.50;;;17.23;;
21513;SDS011;10918;48.102;11.636;2022-12-18T00:21:00;33.45;;;15.55;;
21513;SDS011;10918;48.102;11.636;2022-12-18T00:23:27;34.17;;;16.35;;
21513;SDS011;10918;48.102;11.636;2022-12-18T00:25:53;31.23;;;15.75;;
21513;SDS011;10918;48.102;11.636;2022-12-18T00:28:19;37.28;;;16.13;;
21513;SDS011;10918;48.102;11.636;2022-12-18T00:30:45;38.47;;;16.77;;
21513;SDS011;10918;48.102;11.636;2022-12-18T00:33:11;31.17;;;16.92;;
21513;SDS011;10918;48.102;11.636;2022-12-18T00:35:37;30.38;;;16.05;;
21513;SDS011;10918;48.102;11.636;2022-12-18T00:38:03;35.63;;;16.13;;
21513;SDS011;10918;48.102;11.636;2022-12-18T00:40:31;36.00;;;16.00;;
21513;SDS011;10918;48.102;11.636;2022-12-18T00:42:57;30.90;;;14.57;;
21513;SDS011;10918;48.102;11.636;2022-12-18T00:45:26;33.83;;;16.60;;
21513;SDS011;10918;48.102;11.636;2022-12-18T00:47:52;30.35;;;16.65;;
21513;SDS011;10918;48.102;11.636;2022-12-18T00:50:18;35.92;;;17.00;;
21513;SDS011;10918;48.102;11.636;2022-12-18T00:52:45;28.65;;;15.18;;
21513;SDS011;10918;48.102;11.636;2022-12-18T00:55:11;38.28;;;16.85;;
21513;SDS011;10918;48.102;11.636;2022-12-18T00:57:37;33.95;;;16.15;;
21513;SDS011;10918;48.102;11.636;2022-12-18T01:00:04;30.88;;;16.52;;
21513;SDS011;10918;48.102;11.636;2022-12-18T01:02:30;35.60;;;16.05;;
21513;SDS011;10918;48.102;11.636;2022-12-18T01:04:56;33.75;;;16.27;;
21513;SDS011;10918;48.102;11.636;2022-12-18T01:07:22;33.40;;;15.85;;
21513;SDS011;10918;48.102;11.636;2022-12-18T01:09:48;36.00;;;16.55;;
21513;SDS011;10918;48.102;11.636;2022-12-18T01:12:14;32.33;;;16.33;;
21513;SDS011;10918;48.102;11.636;2022-12-18T01:14:40;33.83;;;16.90;;
21513;SDS011;10918;48.102;11.636;2022-12-18T01:17:06;37.85;;;17.25;;
21513;SDS011;10918;48.102;11.636;2022-12-18T01:19:32;33.13;;;16.75;;
21513;SDS011;10918;48.102;11.636;2022-12-18T01:21:58;31.00;;;15.07;;
21513;SDS011;10918;48.102;11.636;2022-12-18T01:24:24;36.20;;;16.60;;
21513;SDS011;10918;48.102;11.636;2022-12-18T01:26:50;33.08;;;16.40;;
21513;SDS011;10918;48.102;11.636;2022-12-18T01:29:16;34.67;;;17.02;;
21513;SDS011;10918;48.102;11.636;2022-12-18T01:31:42;33.67;;;17.45;;
21513;SDS011;10918;48.102;11.636;2022-12-18T01:34:09;32.50;;;16.15;;
21513;SDS011;10918;48.102;11.636;2022-12-18T01:36:36;36.40;;;17.45;;
21513;SDS011;10918;48.102;11.636;2022-12-18T01:39:04;35.40;;;18.17;;
21513;SDS011;10918;48.102;11.636;2022-12-18T01:41:30;39.83;;;17.58;;
21513;SDS011;10918;48.102;11.636;2022-12-18T01:46:59;30.73;;;17.05;;
21513;SDS011;10918;48.102;11.636;2022-12-18T01:49:26;36.88;;;16.65;;
21513;SDS011;10918;48.102;11.636;2022-12-18T01:51:52;36.05;;;17.25;;
21513;SDS011;10918;48.102;11.636;2022-12-18T01:54:17;38.80;;;18.45;;
21513;SDS011;10918;48.102;11.636;2022-12-18T01:56:43;36.55;;;17.75;;
21513;SDS011;10918;48.102;11.636;2022-12-18T01:59:09;36.30;;;16.67;;
21513;SDS011;10918;48.102;11.636;2022-12-18T02:01:37;39.80;;;19.05;;
21513;SDS011;10918;48.102;11.636;2022-12-18T02:04:22;39.53;;;18.73;;
21513;SDS011;10918;48.102;11.636;2022-12-18T02:06:54;34.33;;;17.15;;
21513;SDS011;10918;48.102;11.636;2022-12-18T02:09:26;37.75;;;18.45;;
21513;SDS011;10918;48.102;11.636;2022-12-18T02:17:43;41.10;;;18.20;;
21513;SDS011;10918;48.102;11.636;2022-12-18T02:20:20;38.47;;;18.27;;
21513;SDS011;10918;48.102;11.636;2022-12-18T02:28:17;39.53;;;17.92;;
21513;SDS011;10918;48.102;11.636;2022-12-18T02:30:45;38.83;;;17.90;;
21513;SDS011;10918;48.102;11.636;2022-12-18T02:33:13;43.13;;;18.92;;
21513;SDS011;10918;48.102;11.636;2022-12-18T02:35:40;35.72;;;17.85;;
21513;SDS011;10918;48.102;11.636;2022-12-18T02:38:06;40.67;;;19.13;;
21513;SDS011;10918;48.102;11.636;2022-12-18T02:40:32;36.97;;;18.33;;
21513;SDS011;10918;48.102;11.636;2022-12-18T02:43:02;33.85;;;18.20;;
21513;SDS011;10918;48.102;11.636;2022-12-18T02:45:28;43.13;;;19.48;;
21513;SDS011;10918;48.102;11.636;2022-12-18T02:47:55;37.13;;;17.80;;
21513;SDS011;10918;48.102;11.636;2022-12-18T02:50:26;37.95;;;18.65;;
21513;SDS011;10918;48.102;11.636;2022-12-18T02:55:45;40.90;;;19.10;;
21513;SDS011;10918;48.102;11.636;2022-12-18T02:58:16;42.53;;;18.33;;
21513;SDS011;10918;48.102;11.636;2022-12-18T03:00:59;36.20;;;17.42;;
21513;SDS011;10918;48.102;11.636;2022-12-18T03:03:31;38.42;;;18.38;;
21513;SDS011;10918;48.102;11.636;2022-12-18T03:06:02;36.85;;;18.25;;
21513;SDS011;10918;48.102;11.636;2022-12-18T03:08:31;40.58;;;18.40;;
21513;SDS011;10918;48.102;11.636;2022-12-18T03:11:03;40.55;;;19.55;;
21513;SDS011;10918;48.102;11.636;2022-12-18T03:13:34;39.90;;;18.20;;
21513;SDS011;10918;48.102;11.636;2022-12-18T03:16:01;36.35;;;18.20;;
21513;SDS011;10918;48.102;11.636;2022-12-18T03:18:30;38.20;;;19.67;;
21513;SDS011;10918;48.102;11.636;2022-12-18T03:20:57;39.75;;;19.20;;
21513;SDS011;10918;48.102;11.636;2022-12-18T03:23:25;42.42;;;19.58;;
21513;SDS011;10918;48.102;11.636;2022-12-18T03:25:54;43.33;;;19.90;;
21513;SDS011;10918;48.102;11.636;2022-12-18T03:28:22;42.63;;;19.60;;
21513;SDS011;10918;48.102;11.636;2022-12-18T03:30:49;39.75;;;19.30;;
21513;SDS011;10918;48.102;11.636;2022-12-18T03:33:31;38.63;;;18.80;;
21513;SDS011;10918;48.102;11.636;2022-12-18T03:36:00;34.40;;;17.23;;
21513;SDS011;10918;48.102;11.636;2022-12-18T03:38:26;38.70;;;19.02;;
21513;SDS011;10918;48.102;11.636;2022-12-18T03:40:58;38.22;;;18.83;;
21513;SDS011;10918;48.102;11.636;2022-12-18T03:46:12;42.15;;;19.70;;
21513;SDS011;10918;48.102;11.636;2022-12-18T03:48:42;40.22;;;20.63;;
21513;SDS011;10918;48.102;11.636;2022-12-18T03:51:10;36.35;;;19.02;;
21513;SDS011;10918;48.102;11.636;2022-12-18T03:53:40;37.22;;;18.58;;
21513;SDS011;10918;48.102;11.636;2022-12-18T03:56:07;40.63;;;18.00;;
21513;SDS011;10918;48.102;11.636;2022-12-18T03:58:35;43.65;;;19.83;;
21513;SDS011;10918;48.102;11.636;2022-12-18T04:01:03;36.17;;;18.40;;
21513;SDS011;10918;48.102;11.636;2022-12-18T04:03:29;41.30;;;19.35;;
21513;SDS011;10918;48.102;11.636;2022-12-18T04:05:57;36.35;;;18.17;;
21513;SDS011;10918;48.102;11.636;2022-12-18T04:08:24;42.90;;;18.27;;
21513;SDS011;10918;48.102;11.636;2022-12-18T04:10:50;40.15;;;18.08;;
21513;SDS011;10918;48.102;11.636;2022-12-18T04:13:30;39.22;;;19.13;;
21513;SDS011;10918;48.102;11.636;2022-12-18T04:15:57;34.42;;;17.33;;
21513;SDS011;10918;48.102;11.636;2022-12-18T04:18:23;37.10;;;17.60;;
21513;SDS011;10918;48.102;11.636;2022-12-18T04:20:49;36.33;;;17.75;;
21513;SDS011;10918;48.102;11.636;2022-12-18T04:23:15;37.08;;;17.40;;
21513;SDS011;10918;48.102;11.636;2022-12-18T04:25:41;37.35;;;17.85;;
21513;SDS011;10918;48.102;11.636;2022-12-18T04:28:07;41.95;;;18.38;;
21513;SDS011;10918;48.102;11.636;2022-12-18T04:30:33;38.60;;;18.25;;
21513;SDS011;10918;48.102;11.636;2022-12-18T04:32:59;37.13;;;18.65;;
21513;SDS011;10918;48.102;11.636;2022-12-18T04:35:25;39.42;;;18.85;;
21513;SDS011;10918;48.102;11.636;2022-12-18T04:37:52;33.20;;;17.15;;
21513;SDS011;10918;48.102;11.636;2022-12-18T04:40:18;33.80;;;16.65;;
21513;SDS011;10918;48.102;11.636;2022-12-18T04:42:44;34.53;;;16.85;;
21513;SDS011;10918;48.102;11.636;2022-12-18T04:45:10;32.75;;;16.23;;
21513;SDS011;10918;48.102;11.636;2022-12-18T04:47:36;34.35;;;17.48;;
21513;SDS011;10918;48.102;11.636;2022-12-18T04:50:02;33.30;;;16.17;;
21513;SDS011;10918;48.102;11.636;2022-12-18T04:52:28;27.73;;;15.18;;
21513;SDS011;10918;48.102;11.636;2022-12-18T04:54:57;32.08;;;15.60;;
21513;SDS011;10918;48.102;11.636;2022-12-18T04:57:23;28.52;;;15.30;;
21513;SDS011;10918;48.102;11.636;2022-12-18T04:59:49;29.80;;;15.98;;
21513;SDS011;10918;48.102;11.636;2022-12-18T05:02:15;29.30;;;15.18;;
21513;SDS011;10918;48.102;11.636;2022-12-18T05:04:41;32.20;;;15.98;;
21513;SDS011;10918;48.102;11.636;2022-12-18T05:07:06;31.23;;;16.50;;
21513;SDS011;10918;48.102;11.636;2022-12-18T05:09:32;32.95;;;16.60;;
21513;SDS011;10918;48.102;11.636;2022-12-18T05:11:58;31.65;;;15.43;;
21513;SDS011;10918;48.102;11.636;2022-12-18T05:14:24;33.85;;;15.27;;
21513;SDS011;10918;48.102;11.636;2022-12-18T05:16:52;28.35;;;15.18;;
21513;SDS011;10918;48.102;11.636;2022-12-18T05:19:18;30.88;;;15.18;;
21513;SDS011;10918;48.102;11.636;2022-12-18T05:21:44;38.42;;;15.60;;
21513;SDS011;10918;48.102;11.636;2022-12-18T05:24:10;26.67;;;14.25;;
21513;SDS011;10918;48.102;11.636;2022-12-18T05:26:36;34.60;;;16.50;;
21513;SDS011;10918;48.102;11.636;2022-12-18T05:29:02;28.15;;;15.68;;
21513;SDS011;10918;48.102;11.636;2022-12-18T05:31:28;30.23;;;15.35;;
21513;SDS011;10918;48.102;11.636;2022-12-18T05:33:54;32.63;;;16.13;;
21513;SDS011;10918;48.102;11.636;2022-12-18T05:36:20;31.60;;;15.88;;
21513;SDS011;10918;48.102;11.636;2022-12-18T05:38:46;28.08;;;15.13;;
21513;SDS011;10918;48.102;11.636;2022-12-18T05:41:12;27.27;;;14.98;;
21513;SDS011;10918;48.102;11.636;2022-12-18T05:43:39;28.55;;;14.88;;
21513;SDS011;10918;48.102;11.636;2022-12-18T05:46:06;25.02;;;14.55;;
21513;SDS011;10918;48.102;11.636;2022-12-18T05:48:33;30.40;;;14.98;;
21513;SDS011;10918;48.102;11.636;2022-12-18T05:51:06;25.98;;;14.38;;
21513;SDS011;10918;48.102;11.636;2022-12-18T05:53:32;28.73;;;14.63;;
21513;SDS011;10918;48.102;11.636;2022-12-18T05:56:01;30.42;;;14.52;;
21513;SDS011;10918;48.102;11.636;2022-12-18T05:58:28;28.20;;;15.27;;
21513;SDS011;10918;48.102;11.636;2022-12-18T06:00:54;30.35;;;16.38;;
21513;SDS011;10918;48.102;11.636;2022-12-18T06:03:20;29.05;;;14.60;;
21513;SDS011;10918;48.102;11.636;2022-12-18T06:05:46;27.83;;;14.73;;
21513;SDS011;10918;48.102;11.636;2022-12-18T06:08:12;31.55;;;15.40;;
21513;SDS011;10918;48.102;11.636;2022-12-18T06:10:38;32.42;;;15.45;;
21513;SDS011;10918;48.102;11.636;2022-12-18T06:13:05;32.53;;;15.00;;
21513;SDS011;10918;48.102;11.636;2022-12-18T06:15:31;29.23;;;14.65;;
21513;SDS011;10918;48.102;11.636;2022-12-18T06:17:57;29.00;;;14.93;;
21513;SDS011;10918;48.102;11.636;2022-12-18T06:20:23;32.72;;;15.45;;
21513;SDS011;10918;48.102;11.636;2022-12-18T06:22:49;31.63;;;14.75;;
21513;SDS011;10918;48.102;11.636;2022-12-18T06:25:15;31.65;;;16.00;;
21513;SDS011;10918;48.102;11.636;2022-12-18T06:27:41;29.27;;;15.73;;
21513;SDS011;10918;48.102;11.636;2022-12-18T06:30:08;31.40;;;15.30;;
21513;SDS011;10918;48.102;11.636;2022-12-18T06:32:34;28.40;;;15.20;;
21513;SDS011;10918;48.102;11.636;2022-12-18T06:35:00;29.00;;;15.32;;
21513;SDS011;10918;48.102;11.636;2022-12-18T06:37:26;31.58;;;14.80;;
21513;SDS011;10918;48.102;11.636;2022-12-18T06:39:52;31.88;;;15.25;;
21513;SDS011;10918;48.102;11.636;2022-12-18T06:42:22;30.58;;;14.52;;
21513;SDS011;10918;48.102;11.636;2022-12-18T06:44:48;29.02;;;15.18;;
21513;SDS011;10918;48.102;11.636;2022-12-18T06:47:14;30.20;;;14.85;;
21513;SDS011;10918;48.102;11.636;2022-12-18T06:49:40;30.52;;;14.85;;
21513;SDS011;10918;48.102;11.636;2022-12-18T06:52:06;28.52;;;14.90;;
21513;SDS011;10918;48.102;11.636;2022-12-18T06:54:32;25.98;;;13.93;;
21513;SDS011;10918;48.102;11.636;2022-12-18T06:56:58;35.75;;;16.75;;
21513;SDS011;10918;48.102;11.636;2022-12-18T06:59:23;28.30;;;13.70;;
21513;SDS011;10918;48.102;11.636;2022-12-18T07:01:50;31.05;;;15.68;;
21513;SDS011;10918;48.102;11.636;2022-12-18T07:04:16;31.75;;;14.90;;
21513;SDS011;10918;48.102;11.636;2022-12-18T07:06:41;31.08;;;14.63;;
21513;SDS011;10918;48.102;11.636;2022-12-18T07:09:07;27.02;;;13.05;;
21513;SDS011;10918;48.102;11.636;2022-12-18T07:11:33;27.48;;;14.35;;
21513;SDS011;10918;48.102;11.636;2022-12-18T07:13:59;28.48;;;15.00;;
21513;SDS011;10918;48.102;11.636;2022-12-18T07:16:26;30.77;;;14.68;;
21513;SDS011;10918;48.102;11.636;2022-12-18T07:18:54;29.73;;;14.98;;
21513;SDS011;10918;48.102;11.636;2022-12-18T07:21:20;27.73;;;13.70;;
21513;SDS011;10918;48.102;11.636;2022-12-18T07:23:46;25.67;;;13.00;;
21513;SDS011;10918;48.102;11.636;2022-12-18T07:26:13;30.35;;;13.38;;
21513;SDS011;10918;48.102;11.636;2022-12-18T07:28:40;29.92;;;14.48;;
21513;SDS011;10918;48.102;11.636;2022-12-18T07:31:07;24.10;;;13.45;;
21513;SDS011;10918;48.102;11.636;2022-12-18T07:33:34;29.95;;;13.63;;
21513;SDS011;10918;48.102;11.636;2022-12-18T07:36:01;30.30;;;14.00;;
21513;SDS011;10918;48.102;11.636;2022-12-18T07:38:28;26.67;;;14.23;;
21513;SDS011;10918;48.102;11.636;2022-12-18T07:40:59;27.10;;;13.57;;
21513;SDS011;10918;48.102;11.636;2022-12-18T07:43:25;25.15;;;13.88;;
21513;SDS011;10918;48.102;11.636;2022-12-18T07:45:51;30.77;;;14.95;;
21513;SDS011;10918;48.102;11.636;2022-12-18T07:48:17;28.50;;;13.57;;
21513;SDS011;10918;48.102;11.636;2022-12-18T07:50:43;30.40;;;15.68;;
21513;SDS011;10918;48.102;11.636;2022-12-18T07:53:09;29.55;;;14.52;;
21513;SDS011;10918;48.102;11.636;2022-12-18T07:55:35;27.30;;;14.02;;
21513;SDS011;10918;48.102;11.636;2022-12-18T07:58:02;26.60;;;13.98;;
21513;SDS011;10918;48.102;11.636;2022-12-18T08:00:28;27.00;;;13.25;;
21513;SDS011;10918;48.102;11.636;2022-12-18T08:02:54;28.00;;;14.38;;
21513;SDS011;10918;48.102;11.636;2022-12-18T08:05:20;31.00;;;14.55;;
21513;SDS011;10918;48.102;11.636;2022-12-18T08:07:46;28.38;;;14.20;;
21513;SDS011;10918;48.102;11.636;2022-12-18T08:10:12;27.45;;;14.00;;
21513;SDS011;10918;48.102;11.636;2022-12-18T08:12:38;24.58;;;13.07;;
21513;SDS011;10918;48.102;11.636;2022-12-18T08:15:04;29.35;;;13.80;;
21513;SDS011;10918;48.102;11.636;2022-12-18T08:17:30;28.17;;;13.40;;
21513;SDS011;10918;48.102;11.636;2022-12-18T08:19:56;26.17;;;12.63;;
21513;SDS011;10918;48.102;11.636;2022-12-18T08:22:22;26.15;;;14.05;;
21513;SDS011;10918;48.102;11.636;2022-12-18T08:24:48;25.73;;;13.00;;
21513;SDS011;10918;48.102;11.636;2022-12-18T08:27:14;24.67;;;13.45;;
21513;SDS011;10918;48.102;11.636;2022-12-18T08:29:40;26.83;;;13.05;;
21513;SDS011;10918;48.102;11.636;2022-12-18T08:32:07;26.67;;;12.88;;
21513;SDS011;10918;48.102;11.636;2022-12-18T08:34:33;26.42;;;13.07;;
21513;SDS011;10918;48.102;11.636;2022-12-18T08:36:59;24.23;;;11.98;;
21513;SDS011;10918;48.102;11.636;2022-12-18T08:39:25;21.92;;;12.30;;
21513;SDS011;10918;48.102;11.636;2022-12-18T08:41:51;26.58;;;12.77;;
21513;SDS011;10918;48.102;11.636;2022-12-18T08:44:35;26.13;;;12.93;;
21513;SDS011;10918;48.102;11.636;2022-12-18T08:47:07;26.50;;;12.48;;
21513;SDS011;10918;48.102;11.636;2022-12-18T08:49:33;26.85;;;13.00;;
21513;SDS011;10918;48.102;11.636;2022-12-18T08:52:00;24.02;;;11.95;;
21513;SDS011;10918;48.102;11.636;2022-12-18T08:54:27;24.55;;;12.40;;
21513;SDS011;10918;48.102;11.636;2022-12-18T08:56:53;27.15;;;12.80;;
21513;SDS011;10918;48.102;11.636;2022-12-18T08:59:19;27.20;;;13.98;;
21513;SDS011;10918;48.102;11.636;2022-12-18T09:01:45;24.20;;;12.55;;
21513;SDS011;10918;48.102;11.636;2022-12-18T09:04:12;23.83;;;11.90;;
21513;SDS011;10918;48.102;11.636;2022-12-18T09:06:39;25.08;;;13.00;;
21513;SDS011;10918;48.102;11.636;2022-12-18T09:09:05;21.45;;;11.98;;
21513;SDS011;10918;48.102;11.636;2022-12-18T09:11:31;26.55;;;13.65;;
21513;SDS011;10918;48.102;11.636;2022-12-18T09:13:59;23.92;;;12.02;;
21513;SDS011;10918;48.102;11.636;2022-12-18T09:16:25;24.27;;;12.75;;
21513;SDS011;10918;48.102;11.636;2022-12-18T09:18:53;25.00;;;12.65;;
21513;SDS011;10918;48.102;11.636;2022-12-18T09:21:24;25.48;;;12.60;;
21513;SDS011;10918;48.102;11.636;2022-12-18T09:23:50;25.10;;;11.73;;
21513;SDS011;10918;48.102;11.636;2022-12-18T09:26:16;26.98;;;12.48;;
21513;SDS011;10918;48.102;11.636;2022-12-18T09:28:42;23.00;;;12.10;;
21513;SDS011;10918;48.102;11.636;2022-12-18T09:31:10;26.33;;;13.02;;
21513;SDS011;10918;48.102;11.636;2022-12-18T09:33:36;23.88;;;12.40;;
21513;SDS011;10918;48.102;11.636;2022-12-18T09:36:03;21.83;;;12.15;;
21513;SDS011;10918;48.102;11.636;2022-12-18T09:38:29;26.50;;;12.75;;
21513;SDS011;10918;48.102;11.636;2022-12-18T09:40:57;27.00;;;12.45;;
21513;SDS011;10918;48.102;11.636;2022-12-18T09:45:52;23.95;;;12.05;;
21513;SDS011;10918;48.102;11.636;2022-12-18T09:48:21;26.30;;;12.73;;
21513;SDS011;10918;48.102;11.636;2022-12-18T09:50:49;27.20;;;12.93;;
21513;SDS011;10918;48.102;11.636;2022-12-18T09:53:17;24.15;;;11.75;;
21513;SDS011;10918;48.102;11.636;2022-12-18T09:55:45;22.02;;;11.82;;
21513;SDS011;10918;48.102;11.636;2022-12-18T10:00:37;22.05;;;11.30;;
21513;SDS011;10918;48.102;11.636;2022-12-18T10:03:09;24.25;;;12.50;;
21513;SDS011;10918;48.102;11.636;2022-12-18T10:05:54;21.63;;;11.98;;
21513;SDS011;10918;48.102;11.636;2022-12-18T10:10:53;20.92;;;10.82;;
21513;SDS011;10918;48.102;11.636;2022-12-18T10:18:54;24.35;;;11.90;;
21513;SDS011;10918;48.102;11.636;2022-12-18T10:21:27;24.05;;;11.60;;
21513;SDS011;10918;48.102;11.636;2022-12-18T10:26:25;24.33;;;12.10;;
21513;SDS011;10918;48.102;11.636;2022-12-18T10:28:51;22.73;;;12.05;;
21513;SDS011;10918;48.102;11.636;2022-12-18T10:31:21;23.00;;;11.88;;
21513;SDS011;10918;48.102;11.636;2022-12-18T10:33:48;23.83;;;12.02;;
21513;SDS011;10918;48.102;11.636;2022-12-18T10:36:14;24.70;;;11.88;;
21513;SDS011;10918;48.102;11.636;2022-12-18T10:38:40;21.77;;;11.30;;
21513;SDS011;10918;48.102;11.636;2022-12-18T10:43:47;21.27;;;10.85;;
21513;SDS011;10918;48.102;11.636;2022-12-18T10:46:14;26.05;;;11.98;;
21513;SDS011;10918;48.102;11.636;2022-12-18T10:51:07;23.73;;;12.30;;
21513;SDS011;10918;48.102;11.636;2022-12-18T10:53:34;23.88;;;12.82;;
21513;SDS011;10918;48.102;11.636;2022-12-18T10:56:00;25.98;;;12.15;;
21513;SDS011;10918;48.102;11.636;2022-12-18T10:58:29;22.33;;;11.73;;
21513;SDS011;10918;48.102;11.636;2022-12-18T11:01:07;21.65;;;11.18;;
21513;SDS011;10918;48.102;11.636;2022-12-18T11:03:35;24.10;;;12.18;;
21513;SDS011;10918;48.102;11.636;2022-12-18T11:06:03;23.05;;;12.85;;
21513;SDS011;10918;48.102;11.636;2022-12-18T11:08:30;20.00;;;11.05;;
21513;SDS011;10918;48.102;11.636;2022-12-18T11:10:59;24.17;;;12.02;;
21513;SDS011;10918;48.102;11.636;2022-12-18T11:13:26;18.73;;;10.93;;
21513;SDS011;10918;48.102;11.636;2022-12-18T11:15:52;22.10;;;12.05;;
21513;SDS011;10918;48.102;11.636;2022-12-18T11:20:49;23.92;;;12.18;;
21513;SDS011;10918;48.102;11.636;2022-12-18T11:23:16;22.90;;;11.60;;
21513;SDS011;10918;48.102;11.636;2022-12-18T11:25:42;22.60;;;11.75;;
21513;SDS011;10918;48.102;11.636;2022-12-18T11:33:42;24.67;;;11.77;;
21513;SDS011;10918;48.102;11.636;2022-12-18T11:36:08;20.67;;;10.93;;
21513;SDS011;10918;48.102;11.636;2022-12-18T11:38:35;22.85;;;11.02;;
21513;SDS011;10918;48.102;11.636;2022-12-18T11:43:34;23.70;;;11.77;;
21513;SDS011;10918;48.102;11.636;2022-12-18T11:46:04;25.75;;;11.70;;
21513;SDS011;10918;48.102;11.636;2022-12-18T11:48:37;23.58;;;11.75;;
21513;SDS011;10918;48.102;11.636;2022-12-18T11:51:05;19.02;;;10.63;;
21513;SDS011;10918;48.102;11.636;2022-12-18T11:53:33;25.52;;;12.18;;
21513;SDS011;10918;48.102;11.636;2022-12-18T11:56:05;21.67;;;11.88;;
21513;SDS011;10918;48.102;11.636;2022-12-18T11:58:42;22.05;;;11.02;;
21513;SDS011;10918;48.102;11.636;2022-12-18T12:06:20;23.20;;;11.35;;
21513;SDS011;10918;48.102;11.636;2022-12-18T12:19:38;22.02;;;12.73;;
21513;SDS011;10918;48.102;11.636;2022-12-18T12:38:16;21.92;;;11.68;;
21513;SDS011;10918;48.102;11.636;2022-12-18T12:40:44;19.17;;;10.32;;
21513;SDS011;10918;48.102;11.636;2022-12-18T12:48:21;28.77;;;14.48;;
21513;SDS011;10918;48.102;11.636;2022-12-18T12:50:49;22.33;;;10.93;;
21513;SDS011;10918;48.102;11.636;2022-12-18T12:53:48;18.75;;;10.50;;
21513;SDS011;10918;48.102;11.636;2022-12-18T12:56:08;21.67;;;10.93;;
21513;SDS011;10918;48.102;11.636;2022-12-18T13:08:57;21.92;;;10.90;;
21513;SDS011;10918;48.102;11.636;2022-12-18T13:11:43;23.45;;;11.68;;
21513;SDS011;10918;48.102;11.636;2022-12-18T13:19:42;23.48;;;11.25;;
21513;SDS011;10918;48.102;11.636;2022-12-18T13:22:24;22.30;;;10.90;;
21513;SDS011;10918;48.102;11.636;2022-12-18T13:24:50;20.45;;;10.70;;
21513;SDS011;10918;48.102;11.636;2022-12-18T13:30:01;23.40;;;11.52;;
21513;SDS011;10918;48.102;11.636;2022-12-18T13:32:27;23.05;;;11.82;;
21513;SDS011;10918;48.102;11.636;2022-12-18T13:37:39;22.00;;;11.38;;
21513;SDS011;10918;48.102;11.636;2022-12-18T13:40:25;24.15;;;12.57;;
21513;SDS011;10918;48.102;11.636;2022-12-18T13:42:52;21.13;;;11.65;;
21513;SDS011;10918;48.102;11.636;2022-12-18T13:48:03;22.52;;;11.80;;
21513;SDS011;10918;48.102;11.636;2022-12-18T13:50:29;23.15;;;11.68;;
21513;SDS011;10918;48.102;11.636;2022-12-18T13:52:56;20.52;;;11.15;;
21513;SDS011;10918;48.102;11.636;2022-12-18T13:55:23;26.02;;;11.95;;
21513;SDS011;10918;48.102;11.636;2022-12-18T13:57:49;24.27;;;12.85;;
21513;SDS011;10918;48.102;11.636;2022-12-18T14:02:44;22.92;;;12.38;;
21513;SDS011;10918;48.102;11.636;2022-12-18T14:05:30;23.75;;;12.02;;
21513;SDS011;10918;48.102;11.636;2022-12-18T14:08:00;24.23;;;12.15;;
21513;SDS011;10918;48.102;11.636;2022-12-18T14:10:27;23.75;;;10.68;;
21513;SDS011;10918;48.102;11.636;2022-12-18T14:12:53;24.35;;;10.60;;
21513;SDS011;10918;48.102;11.636;2022-12-18T14:17:55;26.02;;;13.38;;
21513;SDS011;10918;48.102;11.636;2022-12-18T14:20:21;22.80;;;10.88;;
21513;SDS011;10918;48.102;11.636;2022-12-18T14:22:48;22.42;;;11.48;;
21513;SDS011;10918;48.102;11.636;2022-12-18T14:25:22;23.63;;;11.93;;
21513;SDS011;10918;48.102;11.636;2022-12-18T14:27:50;25.52;;;12.50;;
21513;SDS011;10918;48.102;11.636;2022-12-18T14:30:23;22.95;;;11.02;;
21513;SDS011;10918;48.102;11.636;2022-12-18T14:38:21;21.85;;;11.60;;
21513;SDS011;10918;48.102;11.636;2022-12-18T14:40:51;28.00;;;12.38;;
21513;SDS011;10918;48.102;11.636;2022-12-18T14:43:17;25.42;;;12.65;;
21513;SDS011;10918;48.102;11.636;2022-12-18T14:45:43;26.55;;;12.88;;
21513;SDS011;10918;48.102;11.636;2022-12-18T14:50:40;24.77;;;13.00;;
21513;SDS011;10918;48.102;11.636;2022-12-18T14:53:06;25.17;;;12.25;;
21513;SDS011;10918;48.102;11.636;2022-12-18T14:55:32;24.10;;;12.10;;
21513;SDS011;10918;48.102;11.636;2022-12-18T14:57:58;20.75;;;11.25;;
21513;SDS011;10918;48.102;11.636;2022-12-18T15:00:24;22.75;;;12.35;;
21513;SDS011;10918;48.102;11.636;2022-12-18T15:02:52;26.58;;;12.60;;
21513;SDS011;10918;48.102;11.636;2022-12-18T15:05:21;23.40;;;11.30;;
21513;SDS011;10918;48.102;11.636;2022-12-18T15:07:51;23.65;;;10.90;;
21513;SDS011;10918;48.102;11.636;2022-12-18T15:12:44;22.50;;;11.98;;
21513;SDS011;10918;48.102;11.636;2022-12-18T15:18:10;23.60;;;11.68;;
21513;SDS011;10918;48.102;11.636;2022-12-18T15:20:44;21.40;;;10.95;;
21513;SDS011;10918;48.102;11.636;2022-12-18T15:23:16;24.08;;;12.43;;
21513;SDS011;10918;48.102;11.636;2022-12-18T15:25:43;24.25;;;12.27;;
21513;SDS011;10918;48.102;11.636;2022-12-18T15:33:37;21.23;;;11.77;;
21513;SDS011;10918;48.102;11.636;2022-12-18T15:36:04;22.73;;;11.80;;
21513;SDS011;10918;48.102;11.636;2022-12-18T15:38:31;31.08;;;13.57;;
21513;SDS011;10918;48.102;11.636;2022-12-18T15:40:57;26.90;;;12.93;;
21513;SDS011;10918;48.102;11.636;2022-12-18T15:43:23;22.15;;;12.32;;
21513;SDS011;10918;48.102;11.636;2022-12-18T15:46:21;21.10;;;11.60;;
21513;SDS011;10918;48.102;11.636;2022-12-18T15:48:46;26.33;;;13.18;;
21513;SDS011;10918;48.102;11.636;2022-12-18T15:51:19;29.70;;;13.15;;
21513;SDS011;10918;48.102;11.636;2022-12-18T15:53:47;26.52;;;13.55;;
21513;SDS011;10918;48.102;11.636;2022-12-18T15:56:13;23.20;;;13.10;;
21513;SDS011;10918;48.102;11.636;2022-12-18T15:58:58;26.60;;;12.95;;
21513;SDS011;10918;48.102;11.636;2022-12-18T16:01:25;27.98;;;13.35;;
21513;SDS011;10918;48.102;11.636;2022-12-18T16:03:52;30.17;;;13.88;;
21513;SDS011;10918;48.102;11.636;2022-12-18T16:06:18;23.08;;;11.88;;
21513;SDS011;10918;48.102;11.636;2022-12-18T16:08:44;28.00;;;14.02;;
21513;SDS011;10918;48.102;11.636;2022-12-18T16:11:24;24.65;;;13.73;;
21513;SDS011;10918;48.102;11.636;2022-12-18T16:14:08;22.65;;;11.68;;
21513;SDS011;10918;48.102;11.636;2022-12-18T16:16:37;27.88;;;14.02;;
21513;SDS011;10918;48.102;11.636;2022-12-18T16:19:03;28.63;;;13.43;;
21513;SDS011;10918;48.102;11.636;2022-12-18T16:21:29;25.95;;;13.15;;
21513;SDS011;10918;48.102;11.636;2022-12-18T16:23:55;27.42;;;13.48;;
21513;SDS011;10918;48.102;11.636;2022-12-18T16:26:21;30.17;;;15.30;;
21513;SDS011;10918;48.102;11.636;2022-12-18T16:28:47;30.95;;;15.07;;